sensor_id;sensor_type;location;lat;lon;timestamp;pressure;altitude;pressure_sealevel;temperature;humidity
18918;BME280;9591;52.742;13.650;2023-07-09T00:00:38;101579.34;;;17.46;89.96
18918;BME280;9591;52.742;13.650;2023-07-09T00:03:25;101579.72;;;17.38;89.63
18918;BME280;9591;52.742;13.650;2023-07-09T00:06:13;101576.63;;;17.29;90.28
18918;BME280;9591;52.742;13.650;2023-07-09T00:08:59;101581.25;;;17.25;90.84
18918;BME280;9591;52.742;13.650;2023-07-09T00:11:47;101581.63;;;17.18;92.04
18918;BME280;9591;52.742;13.650;2023-07-09T00:14:34;101587.78;;;17.20;94.04
18918;BME280;9591;52.742;13.650;2023-07-09T00:17:26;101586.75;;;17.22;93.97
18918;BME280;9591;52.742;13.650;2023-07-09T00:20:17;101585.09;;;17.20;93.29
18918;BME280;9591;52.742;13.650;2023-07-09T00:23:04;101585.78;;;17.04;94.51
18918;BME280;9591;52.742;13.650;2023-07-09T00:25:51;101581.44;;;17.02;96.36
18918;BME280;9591;52.742;13.650;2023-07-09T00:28:38;101580.97;;;17.13;94.97
18918;BME280;9591;52.742;13.650;2023-07-09T00:31:25;101578.38;;;17.30;93.02
18918;BME280;9591;52.742;13.650;2023-07-09T00:34:21;101576.31;;;17.35;91.70
18918;BME280;9591;52.742;13.650;2023-07-09T00:37:15;101542.97;;;17.04;91.74
18918;BME280;9591;52.742;13.650;2023-07-09T00:40:03;101575.22;;;17.01;94.38
18918;BME280;9591;52.742;13.650;2023-07-09T00:42:53;101563.06;;;16.94;92.04
18918;BME280;9591;52.742;13.650;2023-07-09T00:45:40;101581.38;;;17.03;92.87
18918;BME280;9591;52.742;13.650;2023-07-09T00:48:28;101578.19;;;16.95;92.69
18918;BME280;9591;52.742;13.650;2023-07-09T00:51:20;101575.72;;;16.91;92.74
18918;BME280;9591;52.742;13.650;2023-07-09T00:54:19;101569.63;;;16.87;94.66
18918;BME280;9591;52.742;13.650;2023-07-09T00:57:12;101572.81;;;16.95;92.81
18918;BME280;9591;52.742;13.650;2023-07-09T01:00:30;101566.97;;;16.87;92.32
18918;BME280;9591;52.742;13.650;2023-07-09T01:03:28;101564.47;;;16.62;95.55
18918;BME280;9591;52.742;13.650;2023-07-09T01:06:20;101561.16;;;16.78;93.98
18918;BME280;9591;52.742;13.650;2023-07-09T01:09:12;101559.75;;;16.69;94.22
18918;BME280;9591;52.742;13.650;2023-07-09T01:12:03;101554.63;;;16.63;94.75
18918;BME280;9591;52.742;13.650;2023-07-09T01:14:53;101556.91;;;16.52;96.18
18918;BME280;9591;52.742;13.650;2023-07-09T01:17:44;101556.91;;;16.52;96.23
18918;BME280;9591;52.742;13.650;2023-07-09T01:20:31;101567.63;;;16.52;96.91
18918;BME280;9591;52.742;13.650;2023-07-09T01:23:19;101551.00;;;16.45;95.88
18918;BME280;9591;52.742;13.650;2023-07-09T01:26:06;101547.19;;;16.30;98.81
18918;BME280;9591;52.742;13.650;2023-07-09T01:28:54;101565.91;;;16.71;95.58
18918;BME280;9591;52.742;13.650;2023-07-09T01:31:42;101563.50;;;16.45;97.40
18918;BME280;9591;52.742;13.650;2023-07-09T01:34:29;101566.44;;;16.38;98.21
18918;BME280;9591;52.742;13.650;2023-07-09T01:37:20;101551.06;;;16.23;98.58
18918;BME280;9591;52.742;13.650;2023-07-09T01:40:12;101547.03;;;16.13;99.28
18918;BME280;9591;52.742;13.650;2023-07-09T01:43:15;101569.16;;;16.17;100.00
18918;BME280;9591;52.742;13.650;2023-07-09T01:46:01;101573.38;;;16.22;100.00
18918;BME280;9591;52.742;13.650;2023-07-09T01:48:49;101574.03;;;16.27;100.00
18918;BME280;9591;52.742;13.650;2023-07-09T01:51:38;101578.84;;;16.19;100.00
18918;BME280;9591;52.742;13.650;2023-07-09T01:54:27;101582.50;;;16.17;100.00
18918;BME280;9591;52.742;13.650;2023-07-09T01:57:17;101578.97;;;16.16;100.00
18918;BME280;9591;52.742;13.650;2023-07-09T02:00:11;101573.81;;;16.12;100.00
18918;BME280;9591;52.742;13.650;2023-07-09T02:03:07;101571.69;;;16.20;100.00
18918;BME280;9591;52.742;13.650;2023-07-09T02:05:54;101579.25;;;16.30;98.62
18918;BME280;9591;52.742;13.650;2023-07-09T02:08:43;101577.47;;;16.31;100.00
18918;BME280;9591;52.742;13.650;2023-07-09T02:11:31;101581.53;;;16.39;99.87
18918;BME280;9591;52.742;13.650;2023-07-09T02:14:19;101582.69;;;16.34;100.00
18918;BME280;9591;52.742;13.650;2023-07-09T02:17:07;101586.09;;;16.37;100.00
18918;BME280;9591;52.742;13.650;2023-07-09T02:19:53;101586.97;;;16.38;100.00
18918;BME280;9591;52.742;13.650;2023-07-09T02:22:41;101582.25;;;16.23;100.00
18918;BME280;9591;52.742;13.650;2023-07-09T02:25:27;101589.16;;;16.28;100.00
18918;BME280;9591;52.742;13.650;2023-07-09T02:28:14;101589.41;;;16.22;100.00
18918;BME280;9591;52.742;13.650;2023-07-09T02:31:02;101592.22;;;16.19;100.00
18918;BME280;9591;52.742;13.650;2023-07-09T02:33:52;101591.56;;;16.34;100.00
18918;BME280;9591;52.742;13.650;2023-07-09T02:36:40;101599.25;;;16.42;100.00
18918;BME280;9591;52.742;13.650;2023-07-09T02:39:28;101598.28;;;16.23;100.00
18918;BME280;9591;52.742;13.650;2023-07-09T02:42:17;101596.44;;;16.03;100.00
18918;BME280;9591;52.742;13.650;2023-07-09T02:45:06;101601.41;;;15.90;100.00
18918;BME280;9591;52.742;13.650;2023-07-09T02:47:54;101605.63;;;15.74;100.00
18918;BME280;9591;52.742;13.650;2023-07-09T02:50:41;101601.53;;;15.65;100.00
18918;BME280;9591;52.742;13.650;2023-07-09T02:53:28;101601.22;;;15.73;100.00
18918;BME280;9591;52.742;13.650;2023-07-09T02:56:15;101597.94;;;15.66;100.00
18918;BME280;9591;52.742;13.650;2023-07-09T02:59:02;101599.53;;;15.70;100.00
18918;BME280;9591;52.742;13.650;2023-07-09T03:01:49;101590.16;;;15.60;100.00
18918;BME280;9591;52.742;13.650;2023-07-09T03:04:38;101601.66;;;15.62;100.00
18918;BME280;9591;52.742;13.650;2023-07-09T03:07:25;101599.19;;;15.58;100.00
18918;BME280;9591;52.742;13.650;2023-07-09T03:10:11;101601.13;;;15.53;100.00
18918;BME280;9591;52.742;13.650;2023-07-09T03:12:58;101601.38;;;15.47;100.00
18918;BME280;9591;52.742;13.650;2023-07-09T03:15:54;101605.78;;;15.48;100.00
18918;BME280;9591;52.742;13.650;2023-07-09T03:18:41;101607.81;;;15.41;100.00
18918;BME280;9591;52.742;13.650;2023-07-09T03:21:30;101592.91;;;15.35;100.00
18918;BME280;9591;52.742;13.650;2023-07-09T03:24:17;101607.81;;;15.41;100.00
18918;BME280;9591;52.742;13.650;2023-07-09T03:27:06;101603.34;;;15.65;100.00
18918;BME280;9591;52.742;13.650;2023-07-09T03:29:53;101612.63;;;15.55;100.00
18918;BME280;9591;52.742;13.650;2023-07-09T03:32:40;101609.00;;;15.57;100.00
18918;BME280;9591;52.742;13.650;2023-07-09T03:35:27;101608.94;;;15.81;100.00
18918;BME280;9591;52.742;13.650;2023-07-09T03:38:15;101608.84;;;15.60;100.00
18918;BME280;9591;52.742;13.650;2023-07-09T03:41:02;101608.72;;;15.63;100.00
18918;BME280;9591;52.742;13.650;2023-07-09T03:43:49;101611.97;;;15.71;100.00
18918;BME280;9591;52.742;13.650;2023-07-09T03:46:38;101616.38;;;15.72;100.00
18918;BME280;9591;52.742;13.650;2023-07-09T03:49:24;101607.69;;;15.67;100.00
18918;BME280;9591;52.742;13.650;2023-07-09T03:52:11;101608.88;;;15.82;100.00
18918;BME280;9591;52.742;13.650;2023-07-09T03:55:00;101609.50;;;15.89;100.00
18918;BME280;9591;52.742;13.650;2023-07-09T03:58:14;101614.03;;;15.87;100.00
18918;BME280;9591;52.742;13.650;2023-07-09T04:01:01;101615.78;;;15.88;100.00
18918;BME280;9591;52.742;13.650;2023-07-09T04:03:48;101605.94;;;16.10;100.00
18918;BME280;9591;52.742;13.650;2023-07-09T04:06:34;101613.28;;;16.27;100.00
18918;BME280;9591;52.742;13.650;2023-07-09T04:09:21;101610.78;;;16.22;100.00
18918;BME280;9591;52.742;13.650;2023-07-09T04:12:10;101608.13;;;16.22;100.00
18918;BME280;9591;52.742;13.650;2023-07-09T04:14:56;101611.22;;;16.33;100.00
18918;BME280;9591;52.742;13.650;2023-07-09T04:17:43;101588.50;;;16.44;100.00
18918;BME280;9591;52.742;13.650;2023-07-09T04:20:30;101605.81;;;16.76;100.00
18918;BME280;9591;52.742;13.650;2023-07-09T04:23:17;101611.97;;;16.98;100.00
18918;BME280;9591;52.742;13.650;2023-07-09T04:26:04;101615.44;;;17.77;100.00
18918;BME280;9591;52.742;13.650;2023-07-09T04:29:20;101621.50;;;18.33;99.68
18918;BME280;9591;52.742;13.650;2023-07-09T04:32:11;101620.38;;;18.91;95.72
18918;BME280;9591;52.742;13.650;2023-07-09T04:34:59;101622.81;;;18.95;92.95
18918;BME280;9591;52.742;13.650;2023-07-09T04:37:46;101624.84;;;19.23;93.45
18918;BME280;9591;52.742;13.650;2023-07-09T04:40:33;101627.47;;;19.41;92.24
18918;BME280;9591;52.742;13.650;2023-07-09T04:43:19;101622.69;;;19.30;92.16
18918;BME280;9591;52.742;13.650;2023-07-09T04:46:08;101612.06;;;18.95;94.53
18918;BME280;9591;52.742;13.650;2023-07-09T04:48:55;101618.09;;;18.66;97.64
18918;BME280;9591;52.742;13.650;2023-07-09T04:55:19;101614.31;;;18.70;97.73
18918;BME280;9591;52.742;13.650;2023-07-09T04:58:07;101617.75;;;18.89;97.26
18918;BME280;9591;52.742;13.650;2023-07-09T05:00:57;101609.66;;;19.07;96.72
18918;BME280;9591;52.742;13.650;2023-07-09T05:03:52;101614.81;;;19.27;97.58
18918;BME280;9591;52.742;13.650;2023-07-09T05:06:44;101614.84;;;19.43;96.00
18918;BME280;9591;52.742;13.650;2023-07-09T05:09:32;101610.38;;;19.75;94.36
18918;BME280;9591;52.742;13.650;2023-07-09T05:12:50;101617.31;;;19.79;93.12
18918;BME280;9591;52.742;13.650;2023-07-09T05:15:41;101616.53;;;19.92;94.81
18918;BME280;9591;52.742;13.650;2023-07-09T05:18:32;101616.16;;;19.98;92.39
18918;BME280;9591;52.742;13.650;2023-07-09T05:21:26;101615.19;;;20.15;93.08
18918;BME280;9591;52.742;13.650;2023-07-09T05:24:15;101623.78;;;20.06;94.53
18918;BME280;9591;52.742;13.650;2023-07-09T05:27:06;101626.19;;;20.26;92.06
18918;BME280;9591;52.742;13.650;2023-07-09T05:30:09;101628.50;;;20.48;95.59
18918;BME280;9591;52.742;13.650;2023-07-09T05:32:59;101633.47;;;20.70;92.59
18918;BME280;9591;52.742;13.650;2023-07-09T05:35:53;101621.19;;;20.94;91.72
18918;BME280;9591;52.742;13.650;2023-07-09T05:39:11;101629.47;;;21.06;92.14
18918;BME280;9591;52.742;13.650;2023-07-09T05:42:18;101622.59;;;21.30;83.24
18918;BME280;9591;52.742;13.650;2023-07-09T05:45:33;101620.06;;;21.55;77.07
18918;BME280;9591;52.742;13.650;2023-07-09T05:48:49;101620.53;;;21.89;82.89
18918;BME280;9591;52.742;13.650;2023-07-09T05:51:56;101617.84;;;22.03;82.64
18918;BME280;9591;52.742;13.650;2023-07-09T05:54:54;101624.22;;;21.88;83.83
18918;BME280;9591;52.742;13.650;2023-07-09T05:57:57;101614.28;;;21.88;84.65
18918;BME280;9591;52.742;13.650;2023-07-09T06:00:54;101619.88;;;21.85;85.66
18918;BME280;9591;52.742;13.650;2023-07-09T06:03:50;101619.47;;;21.91;87.59
18918;BME280;9591;52.742;13.650;2023-07-09T06:06:45;101618.09;;;22.13;85.58
18918;BME280;9591;52.742;13.650;2023-07-09T06:09:34;101619.50;;;22.18;84.48
18918;BME280;9591;52.742;13.650;2023-07-09T06:12:26;101613.50;;;22.28;84.45
18918;BME280;9591;52.742;13.650;2023-07-09T06:15:19;101619.28;;;22.48;84.25
18918;BME280;9591;52.742;13.650;2023-07-09T06:18:09;101620.00;;;22.38;87.36
18918;BME280;9591;52.742;13.650;2023-07-09T06:24:54;101623.84;;;22.73;84.42
18918;BME280;9591;52.742;13.650;2023-07-09T06:27:49;101629.25;;;22.73;84.42
18918;BME280;9591;52.742;13.650;2023-07-09T06:30:55;101625.75;;;22.58;88.02
18918;BME280;9591;52.742;13.650;2023-07-09T06:33:48;101625.78;;;22.71;83.99
18918;BME280;9591;52.742;13.650;2023-07-09T06:37:06;101625.19;;;23.06;78.98
18918;BME280;9591;52.742;13.650;2023-07-09T06:39:56;101634.88;;;23.46;73.35
18918;BME280;9591;52.742;13.650;2023-07-09T06:42:54;101519.53;;;22.98;79.14
18918;BME280;9591;52.742;13.650;2023-07-09T06:45:59;101626.44;;;23.64;79.01
18918;BME280;9591;52.742;13.650;2023-07-09T06:49:13;101625.03;;;23.58;80.85
18918;BME280;9591;52.742;13.650;2023-07-09T06:52:05;101635.75;;;23.60;79.78
18918;BME280;9591;52.742;13.650;2023-07-09T06:55:04;101638.09;;;23.77;76.92
18918;BME280;9591;52.742;13.650;2023-07-09T06:58:06;101631.09;;;23.98;78.99
18918;BME280;9591;52.742;13.650;2023-07-09T07:00:55;101631.53;;;23.92;73.05
18918;BME280;9591;52.742;13.650;2023-07-09T07:03:51;101629.50;;;24.19;78.88
18918;BME280;9591;52.742;13.650;2023-07-09T07:07:04;101637.66;;;24.31;76.38
18918;BME280;9591;52.742;13.650;2023-07-09T07:09:54;101638.41;;;24.33;76.61
18918;BME280;9591;52.742;13.650;2023-07-09T07:13:24;101638.34;;;24.45;72.31
18918;BME280;9591;52.742;13.650;2023-07-09T07:16:15;101639.91;;;24.72;65.42
18918;BME280;9591;52.742;13.650;2023-07-09T07:19:11;101641.06;;;24.92;72.08
18918;BME280;9591;52.742;13.650;2023-07-09T07:22:05;101639.84;;;24.96;71.87
18918;BME280;9591;52.742;13.650;2023-07-09T07:25:35;101630.97;;;24.94;73.66
18918;BME280;9591;52.742;13.650;2023-07-09T07:28:29;101641.13;;;25.03;67.54
18918;BME280;9591;52.742;13.650;2023-07-09T07:31:18;101632.84;;;25.15;67.90
18918;BME280;9591;52.742;13.650;2023-07-09T07:34:06;101632.75;;;25.39;59.35
18918;BME280;9591;52.742;13.650;2023-07-09T07:36:56;101622.53;;;25.65;57.45
18918;BME280;9591;52.742;13.650;2023-07-09T07:39:46;101626.34;;;25.74;68.51
18918;BME280;9591;52.742;13.650;2023-07-09T07:42:36;101627.69;;;25.79;66.95
18918;BME280;9591;52.742;13.650;2023-07-09T07:45:33;101630.28;;;25.92;61.25
18918;BME280;9591;52.742;13.650;2023-07-09T07:48:21;101616.00;;;26.11;57.59
18918;BME280;9591;52.742;13.650;2023-07-09T07:51:13;101617.28;;;26.39;55.58
18918;BME280;9591;52.742;13.650;2023-07-09T07:53:59;101617.44;;;26.58;57.03
18918;BME280;9591;52.742;13.650;2023-07-09T07:56:46;101611.59;;;26.63;55.26
18918;BME280;9591;52.742;13.650;2023-07-09T07:59:36;101591.19;;;26.68;50.83
18918;BME280;9591;52.742;13.650;2023-07-09T08:02:32;101614.84;;;26.98;46.41
18918;BME280;9591;52.742;13.650;2023-07-09T08:05:48;101612.09;;;27.19;54.80
18918;BME280;9591;52.742;13.650;2023-07-09T08:08:38;101605.25;;;27.25;61.42
18918;BME280;9591;52.742;13.650;2023-07-09T08:11:26;101608.38;;;27.20;58.69
18918;BME280;9591;52.742;13.650;2023-07-09T08:14:25;101621.44;;;27.26;44.29
18918;BME280;9591;52.742;13.650;2023-07-09T08:17:17;101626.97;;;27.46;43.67
18918;BME280;9591;52.742;13.650;2023-07-09T08:20:13;101626.22;;;27.64;48.37
18918;BME280;9591;52.742;13.650;2023-07-09T08:23:04;101618.31;;;27.61;62.49
18918;BME280;9591;52.742;13.650;2023-07-09T08:26:52;101626.94;;;27.66;47.92
18918;BME280;9591;52.742;13.650;2023-07-09T08:29:47;101626.53;;;27.71;45.84
18918;BME280;9591;52.742;13.650;2023-07-09T08:32:35;101619.22;;;27.81;45.55
18918;BME280;9591;52.742;13.650;2023-07-09T08:35:27;101623.53;;;27.93;44.78
18918;BME280;9591;52.742;13.650;2023-07-09T08:38:26;101613.69;;;28.12;51.34
18918;BME280;9591;52.742;13.650;2023-07-09T08:41:54;101629.44;;;28.18;47.45
18918;BME280;9591;52.742;13.650;2023-07-09T08:45:07;101610.97;;;28.21;51.45
18918;BME280;9591;52.742;13.650;2023-07-09T08:48:09;101606.50;;;28.20;56.55
18918;BME280;9591;52.742;13.650;2023-07-09T08:51:32;101623.31;;;28.54;44.48
18918;BME280;9591;52.742;13.650;2023-07-09T08:54:50;101609.78;;;28.72;52.74
18918;BME280;9591;52.742;13.650;2023-07-09T08:57:52;101608.38;;;28.87;47.02
18918;BME280;9591;52.742;13.650;2023-07-09T09:00:50;101613.72;;;29.16;41.85
18918;BME280;9591;52.742;13.650;2023-07-09T09:03:55;101609.78;;;29.38;49.26
18918;BME280;9591;52.742;13.650;2023-07-09T09:10:14;101608.34;;;29.44;41.07
18918;BME280;9591;52.742;13.650;2023-07-09T09:13:13;101608.69;;;29.58;44.18
18918;BME280;9591;52.742;13.650;2023-07-09T09:16:21;101612.97;;;29.61;46.01
18918;BME280;9591;52.742;13.650;2023-07-09T09:19:50;101617.31;;;29.81;37.49
18918;BME280;9591;52.742;13.650;2023-07-09T09:23:09;101612.00;;;29.80;44.95
18918;BME280;9591;52.742;13.650;2023-07-09T09:25:59;101599.81;;;29.74;47.91
18918;BME280;9591;52.742;13.650;2023-07-09T09:28:57;101615.78;;;29.96;44.42
18918;BME280;9591;52.742;13.650;2023-07-09T09:31:51;101585.25;;;29.83;48.11
18918;BME280;9591;52.742;13.650;2023-07-09T09:34:55;101598.28;;;30.17;39.31
18918;BME280;9591;52.742;13.650;2023-07-09T09:37:51;101609.97;;;30.27;37.69
18918;BME280;9591;52.742;13.650;2023-07-09T09:41:11;101611.22;;;30.32;40.49
18918;BME280;9591;52.742;13.650;2023-07-09T09:44:01;101609.06;;;30.44;44.74
18918;BME280;9591;52.742;13.650;2023-07-09T09:47:12;101609.00;;;30.72;36.92
18918;BME280;9591;52.742;13.650;2023-07-09T09:50:00;101605.22;;;30.90;39.05
18918;BME280;9591;52.742;13.650;2023-07-09T09:52:49;101613.31;;;31.00;36.93
18918;BME280;9591;52.742;13.650;2023-07-09T09:55:40;101615.75;;;31.11;36.59
18918;BME280;9591;52.742;13.650;2023-07-09T09:58:34;101615.66;;;31.21;35.32
18918;BME280;9591;52.742;13.650;2023-07-09T10:01:28;101611.56;;;31.25;37.03
18918;BME280;9591;52.742;13.650;2023-07-09T10:04:20;101604.22;;;31.17;36.12
18918;BME280;9591;52.742;13.650;2023-07-09T10:07:23;101607.66;;;31.27;36.42
18918;BME280;9591;52.742;13.650;2023-07-09T10:10:44;101605.56;;;31.21;41.53
18918;BME280;9591;52.742;13.650;2023-07-09T10:13:36;101614.84;;;31.03;37.16
18918;BME280;9591;52.742;13.650;2023-07-09T10:16:34;101609.00;;;31.15;33.06
18918;BME280;9591;52.742;13.650;2023-07-09T10:19:42;101603.25;;;31.35;33.79
18918;BME280;9591;52.742;13.650;2023-07-09T10:23:25;101609.78;;;31.42;36.10
18918;BME280;9591;52.742;13.650;2023-07-09T10:26:22;101606.75;;;31.53;36.91
18918;BME280;9591;52.742;13.650;2023-07-09T10:30:09;101614.50;;;31.66;33.28
18918;BME280;9591;52.742;13.650;2023-07-09T10:33:10;101606.50;;;31.72;33.21
18918;BME280;9591;52.742;13.650;2023-07-09T10:36:12;101612.78;;;31.65;33.19
18918;BME280;9591;52.742;13.650;2023-07-09T10:39:26;101613.06;;;31.53;31.59
18918;BME280;9591;52.742;13.650;2023-07-09T10:42:30;101603.13;;;31.44;31.01
18918;BME280;9591;52.742;13.650;2023-07-09T10:45:29;101598.25;;;31.30;32.61
18918;BME280;9591;52.742;13.650;2023-07-09T10:48:34;101602.38;;;31.34;33.31
18918;BME280;9591;52.742;13.650;2023-07-09T10:51:30;101599.84;;;31.07;32.14
18918;BME280;9591;52.742;13.650;2023-07-09T10:54:32;101592.47;;;31.33;33.19
18918;BME280;9591;52.742;13.650;2023-07-09T10:57:29;101593.66;;;31.30;33.26
18918;BME280;9591;52.742;13.650;2023-07-09T11:00:21;101592.09;;;31.28;34.25
18918;BME280;9591;52.742;13.650;2023-07-09T11:03:38;101589.44;;;31.44;35.50
18918;BME280;9591;52.742;13.650;2023-07-09T11:06:40;101590.94;;;31.39;34.79
18918;BME280;9591;52.742;13.650;2023-07-09T11:09:37;101597.34;;;31.55;33.17
18918;BME280;9591;52.742;13.650;2023-07-09T11:12:44;101583.34;;;31.67;32.35
18918;BME280;9591;52.742;13.650;2023-07-09T11:15:41;101574.94;;;31.60;33.03
18918;BME280;9591;52.742;13.650;2023-07-09T11:18:39;101576.16;;;31.66;34.82
18918;BME280;9591;52.742;13.650;2023-07-09T11:21:28;101582.91;;;31.79;34.41
18918;BME280;9591;52.742;13.650;2023-07-09T11:24:45;101578.72;;;31.59;32.21
18918;BME280;9591;52.742;13.650;2023-07-09T11:27:33;101573.00;;;31.78;33.00
18918;BME280;9591;52.742;13.650;2023-07-09T11:30:47;101558.94;;;31.73;37.27
18918;BME280;9591;52.742;13.650;2023-07-09T11:33:48;101562.53;;;31.74;36.15
18918;BME280;9591;52.742;13.650;2023-07-09T11:36:48;101560.31;;;31.77;37.61
18918;BME280;9591;52.742;13.650;2023-07-09T11:39:52;101564.09;;;31.76;32.69
18918;BME280;9591;52.742;13.650;2023-07-09T11:42:54;101557.41;;;31.71;32.96
18918;BME280;9591;52.742;13.650;2023-07-09T11:45:41;101557.06;;;31.74;33.49
18918;BME280;9591;52.742;13.650;2023-07-09T11:48:53;101549.06;;;32.05;35.57
18918;BME280;9591;52.742;13.650;2023-07-09T11:52:04;101551.78;;;32.13;31.39
18918;BME280;9591;52.742;13.650;2023-07-09T11:54:51;101550.94;;;32.04;30.87
18918;BME280;9591;52.742;13.650;2023-07-09T11:58:04;101545.28;;;31.98;35.06
18918;BME280;9591;52.742;13.650;2023-07-09T12:00:57;101535.00;;;32.08;33.06
18918;BME280;9591;52.742;13.650;2023-07-09T12:03:47;101530.06;;;32.03;37.22
18918;BME280;9591;52.742;13.650;2023-07-09T12:06:57;101527.16;;;31.97;32.81
18918;BME280;9591;52.742;13.650;2023-07-09T12:09:50;101534.84;;;31.93;32.17
18918;BME280;9591;52.742;13.650;2023-07-09T12:13:01;101529.53;;;32.00;32.27
18918;BME280;9591;52.742;13.650;2023-07-09T12:15:53;101522.88;;;32.26;31.99
18918;BME280;9591;52.742;13.650;2023-07-09T12:18:45;101513.44;;;32.21;35.75
18918;BME280;9591;52.742;13.650;2023-07-09T12:21:42;101516.16;;;32.21;33.49
18918;BME280;9591;52.742;13.650;2023-07-09T12:24:37;101511.22;;;32.33;32.03
18918;BME280;9591;52.742;13.650;2023-07-09T12:27:34;101504.38;;;32.37;28.95
18918;BME280;9591;52.742;13.650;2023-07-09T12:30:23;101507.09;;;32.53;30.34
18918;BME280;9591;52.742;13.650;2023-07-09T12:33:19;101508.78;;;32.62;29.98
18918;BME280;9591;52.742;13.650;2023-07-09T12:36:06;101510.50;;;32.79;30.03
18918;BME280;9591;52.742;13.650;2023-07-09T12:38:59;101501.06;;;32.74;30.52
18918;BME280;9591;52.742;13.650;2023-07-09T12:41:50;101499.50;;;32.87;33.33
18918;BME280;9591;52.742;13.650;2023-07-09T12:44:42;101506.22;;;32.77;33.01
18918;BME280;9591;52.742;13.650;2023-07-09T12:47:30;101506.03;;;32.70;30.80
18918;BME280;9591;52.742;13.650;2023-07-09T12:50:55;101493.69;;;32.74;29.16
18918;BME280;9591;52.742;13.650;2023-07-09T12:57:16;101496.50;;;32.42;32.71
18918;BME280;9591;52.742;13.650;2023-07-09T13:00:18;101496.28;;;32.76;31.15
18918;BME280;9591;52.742;13.650;2023-07-09T13:03:30;101495.25;;;32.77;31.86
18918;BME280;9591;52.742;13.650;2023-07-09T13:06:30;101495.56;;;32.74;29.23
18918;BME280;9591;52.742;13.650;2023-07-09T13:09:24;101485.13;;;32.77;31.69
18918;BME280;9591;52.742;13.650;2023-07-09T13:12:28;101474.50;;;32.82;30.24
18918;BME280;9591;52.742;13.650;2023-07-09T13:15:28;101481.53;;;32.77;30.68
18918;BME280;9591;52.742;13.650;2023-07-09T13:18:21;101483.22;;;32.86;29.35
18918;BME280;9591;52.742;13.650;2023-07-09T13:21:17;101491.47;;;32.86;32.13
18918;BME280;9591;52.742;13.650;2023-07-09T13:24:18;101476.97;;;33.00;32.54
18918;BME280;9591;52.742;13.650;2023-07-09T13:27:08;101474.34;;;32.76;36.29
18918;BME280;9591;52.742;13.650;2023-07-09T13:30:10;101468.84;;;32.68;29.09
18918;BME280;9591;52.742;13.650;2023-07-09T13:32:58;101474.19;;;32.61;28.49
18918;BME280;9591;52.742;13.650;2023-07-09T13:35:45;101479.63;;;32.85;29.33
18918;BME280;9591;52.742;13.650;2023-07-09T13:38:31;101476.25;;;32.51;32.18
18918;BME280;9591;52.742;13.650;2023-07-09T13:41:19;101466.97;;;32.76;33.52
18918;BME280;9591;52.742;13.650;2023-07-09T13:44:20;101461.28;;;32.86;33.06
18918;BME280;9591;52.742;13.650;2023-07-09T13:47:12;101449.19;;;33.03;32.47
18918;BME280;9591;52.742;13.650;2023-07-09T13:50:09;101455.66;;;33.10;34.77
18918;BME280;9591;52.742;13.650;2023-07-09T13:53:28;101450.47;;;32.93;29.47
18918;BME280;9591;52.742;13.650;2023-07-09T13:56:16;101459.56;;;32.85;33.31
18918;BME280;9591;52.742;13.650;2023-07-09T13:59:13;101455.38;;;32.97;36.92
18918;BME280;9591;52.742;13.650;2023-07-09T14:02:26;101464.38;;;32.75;33.67
18918;BME280;9591;52.742;13.650;2023-07-09T14:05:17;101459.75;;;32.83;33.88
18918;BME280;9591;52.742;13.650;2023-07-09T14:08:04;101449.38;;;32.46;37.74
18918;BME280;9591;52.742;13.650;2023-07-09T14:10:53;101451.59;;;32.43;35.92
18918;BME280;9591;52.742;13.650;2023-07-09T14:13:43;101448.16;;;32.49;37.98
18918;BME280;9591;52.742;13.650;2023-07-09T14:16:34;101447.69;;;32.29;38.51
18918;BME280;9591;52.742;13.650;2023-07-09T14:19:28;101443.72;;;32.40;31.15
18918;BME280;9591;52.742;13.650;2023-07-09T14:22:25;101443.03;;;32.46;34.62
18918;BME280;9591;52.742;13.650;2023-07-09T14:25:20;101442.53;;;32.18;40.07
18918;BME280;9591;52.742;13.650;2023-07-09T14:28:20;101437.78;;;32.04;40.49
18918;BME280;9591;52.742;13.650;2023-07-09T14:31:23;101431.09;;;32.22;36.69
18918;BME280;9591;52.742;13.650;2023-07-09T14:34:39;101431.41;;;32.36;36.99
18918;BME280;9591;52.742;13.650;2023-07-09T14:37:28;101429.53;;;32.28;40.29
18918;BME280;9591;52.742;13.650;2023-07-09T14:40:21;101430.56;;;32.19;40.13
18918;BME280;9591;52.742;13.650;2023-07-09T14:43:14;101437.78;;;32.04;35.04
18918;BME280;9591;52.742;13.650;2023-07-09T14:46:04;101435.03;;;32.04;31.06
18918;BME280;9591;52.742;13.650;2023-07-09T14:49:07;101434.81;;;32.21;34.33
18918;BME280;9591;52.742;13.650;2023-07-09T14:51:57;101446.66;;;32.38;31.50
18918;BME280;9591;52.742;13.650;2023-07-09T14:54:45;101436.94;;;31.95;30.67
18918;BME280;9591;52.742;13.650;2023-07-09T14:57:44;101439.13;;;32.16;34.64
18918;BME280;9591;52.742;13.650;2023-07-09T15:00:34;101432.78;;;32.07;35.79
18918;BME280;9591;52.742;13.650;2023-07-09T15:03:53;101425.06;;;32.19;34.06
18918;BME280;9591;52.742;13.650;2023-07-09T15:06:41;101427.81;;;32.19;32.81
18918;BME280;9591;52.742;13.650;2023-07-09T15:09:36;101434.84;;;32.13;37.86
18918;BME280;9591;52.742;13.650;2023-07-09T15:12:30;101439.97;;;32.16;33.82
18918;BME280;9591;52.742;13.650;2023-07-09T15:15:25;101435.00;;;32.12;35.65
18918;BME280;9591;52.742;13.650;2023-07-09T15:18:15;101435.69;;;32.14;37.25
18918;BME280;9591;52.742;13.650;2023-07-09T15:21:10;101431.28;;;31.97;40.67
18918;BME280;9591;52.742;13.650;2023-07-09T15:24:04;101426.16;;;32.02;39.57
18918;BME280;9591;52.742;13.650;2023-07-09T15:27:40;101414.84;;;31.80;39.60
18918;BME280;9591;52.742;13.650;2023-07-09T15:30:29;101418.56;;;31.63;37.62